createdAt,value
2023-10-09T00:00:33.732Z,57.29
2023-10-09T00:03:02.399Z,57.14
2023-10-09T00:05:47.076Z,57.20
2023-10-09T00:08:20.489Z,57.05
2023-10-09T00:10:54.383Z,57.12
2023-10-09T00:13:30.714Z,57.07
2023-10-09T00:16:09.363Z,57.05
2023-10-09T00:18:37.381Z,57.23
2023-10-09T00:21:13.890Z,57.20
2023-10-09T00:23:42.255Z,57.22
2023-10-09T00:26:12.192Z,57.03
2023-10-09T00:28:52.390Z,57.18
2023-10-09T00:31:31.189Z,56.91
2023-10-09T00:34:04.753Z,56.86
2023-10-09T00:36:34.244Z,56.98
2023-10-09T00:39:13.268Z,56.83
2023-10-09T00:41:42.801Z,56.91
2023-10-09T00:44:12.286Z,56.68
2023-10-09T00:46:43.647Z,57.25
2023-10-09T00:49:12.365Z,56.78
2023-10-09T00:51:57.653Z,56.40
2023-10-09T00:54:29.702Z,55.88
2023-10-09T00:57:07.731Z,55.96
2023-10-09T00:59:39.496Z,55.41
2023-10-09T01:02:08.078Z,55.02
2023-10-09T01:04:42.093Z,54.94
2023-10-09T01:07:16.906Z,54.73
2023-10-09T01:09:46.074Z,54.46
2023-10-09T01:12:19.166Z,54.01
2023-10-09T01:14:53.945Z,54.38
2023-10-09T01:17:36.764Z,54.26
2023-10-09T01:20:15.300Z,54.20
2023-10-09T01:22:45.338Z,54.22
2023-10-09T01:25:14.694Z,54.39
2023-10-09T01:27:45.245Z,54.26
2023-10-09T01:30:15.178Z,54.25
2023-10-09T01:32:44.772Z,54.49
2023-10-09T01:35:21.699Z,54.41
2023-10-09T01:37:52.142Z,54.71
2023-10-09T01:40:36.903Z,54.79
2023-10-09T01:43:05.872Z,54.62
2023-10-09T01:45:43.336Z,54.72
2023-10-09T01:48:13.472Z,54.90
2023-10-09T01:50:43.593Z,55.08
2023-10-09T01:53:18.240Z,55.38
2023-10-09T01:55:47.633Z,55.56
2023-10-09T01:58:25.566Z,55.47
2023-10-09T02:00:56.348Z,55.62
2023-10-09T02:03:30.495Z,55.20
2023-10-09T02:06:01.079Z,55.10
2023-10-09T02:08:36.682Z,54.68
2023-10-09T02:11:08.330Z,54.48
2023-10-09T02:13:36.753Z,54.33
2023-10-09T02:16:16.009Z,54.25
2023-10-09T02:18:55.093Z,54.03
2023-10-09T02:21:33.843Z,53.86
2023-10-09T02:24:06.743Z,53.68
2023-10-09T02:27:02.190Z,53.63
2023-10-09T02:29:30.335Z,53.18
2023-10-09T02:32:02.381Z,53.27
2023-10-09T02:34:30.920Z,53.09
2023-10-09T02:37:05.440Z,52.96
2023-10-09T02:39:38.199Z,52.90
2023-10-09T02:42:20.504Z,52.71
2023-10-09T02:44:50.848Z,52.50
2023-10-09T02:47:26.040Z,52.39
2023-10-09T02:50:01.733Z,52.10
2023-10-09T02:52:34.782Z,52.11
2023-10-09T02:55:07.067Z,51.95
2023-10-09T02:57:38.497Z,51.93
2023-10-09T03:00:10.750Z,52.22
2023-10-09T03:02:41.338Z,51.75
2023-10-09T03:05:13.088Z,51.79
2023-10-09T03:07:41.581Z,51.92
2023-10-09T03:10:10.946Z,51.75
2023-10-09T03:12:40.790Z,51.45
2023-10-09T03:15:10.596Z,51.34
2023-10-09T03:17:39.619Z,51.22
2023-10-09T03:20:13.497Z,51.58
2023-10-09T03:22:42.510Z,51.20
2023-10-09T03:25:12.768Z,51.37
2023-10-09T03:27:46.062Z,51.46
2023-10-09T03:30:23.921Z,51.39
2023-10-09T03:32:53.910Z,51.66
2023-10-09T03:35:29.024Z,51.67
2023-10-09T03:38:01.884Z,51.75
2023-10-09T03:40:33.170Z,51.47
2023-10-09T03:43:02.637Z,51.24
2023-10-09T03:45:32.586Z,51.24
2023-10-09T03:48:06.227Z,51.26
2023-10-09T03:50:38.534Z,51.35
2023-10-09T03:53:09.020Z,51.35
2023-10-09T03:55:40.670Z,51.46
2023-10-09T03:58:12.805Z,51.37
2023-10-09T04:00:46.596Z,51.64
2023-10-09T04:03:16.282Z,51.71
2023-10-09T04:05:46.016Z,51.57
2023-10-09T04:08:21.185Z,51.47
2023-10-09T04:10:56.751Z,51.58
2023-10-09T04:13:34.587Z,51.64
2023-10-09T04:16:11.857Z,51.60
2023-10-09T04:18:41.186Z,51.75
2023-10-09T04:21:20.289Z,51.90
2023-10-09T04:24:06.884Z,52.08
2023-10-09T04:26:36.050Z,52.83
2023-10-09T04:29:06.526Z,53.27
2023-10-09T04:31:38.327Z,53.37
2023-10-09T04:34:29.566Z,53.73
2023-10-09T04:37:18.214Z,53.78
2023-10-09T04:39:48.877Z,53.57
2023-10-09T04:42:21.299Z,53.90
2023-10-09T04:45:16.430Z,53.81
2023-10-09T04:48:02.054Z,54.02
2023-10-09T04:50:46.853Z,54.02
2023-10-09T04:53:26.217Z,54.19
2023-10-09T04:55:58.628Z,54.06
2023-10-09T04:58:33.208Z,54.31
2023-10-09T05:01:12.891Z,54.29
2023-10-09T05:03:46.818Z,53.98
2023-10-09T05:06:33.404Z,54.20
2023-10-09T05:09:09.902Z,54.23
2023-10-09T05:11:51.859Z,54.32
2023-10-09T05:14:27.870Z,54.24
2023-10-09T05:16:56.531Z,54.21
2023-10-09T05:19:34.678Z,54.01
2023-10-09T05:22:08.785Z,54.75
2023-10-09T05:24:46.794Z,55.09
2023-10-09T05:27:18.841Z,54.96
2023-10-09T05:30:00.408Z,55.73
2023-10-09T05:32:36.327Z,56.26
2023-10-09T05:35:16.907Z,56.30
2023-10-09T05:37:44.485Z,55.99
2023-10-09T05:40:27.997Z,56.07
2023-10-09T05:43:06.869Z,55.69
2023-10-09T05:45:52.568Z,56.58
2023-10-09T05:48:35.988Z,55.97
2023-10-09T05:51:20.590Z,55.94
2023-10-09T05:54:13.072Z,56.06
2023-10-09T05:56:58.721Z,56.74
2023-10-09T05:59:44.123Z,56.30
2023-10-09T06:02:55.657Z,56.35
2023-10-09T06:05:52.410Z,56.53
2023-10-09T06:08:25.933Z,56.92
2023-10-09T06:11:07.076Z,56.41
2023-10-09T06:13:46.872Z,55.96
2023-10-09T06:16:36.444Z,55.78
2023-10-09T06:19:13.593Z,55.24
2023-10-09T06:22:02.025Z,54.51
2023-10-09T06:24:42.819Z,53.61
2023-10-09T06:27:17.055Z,53.24
2023-10-09T06:29:59.780Z,52.63
2023-10-09T06:32:38.413Z,52.46
2023-10-09T06:35:19.604Z,52.39
2023-10-09T06:38:15.331Z,51.93
2023-10-09T06:41:18.272Z,52.36
2023-10-09T06:43:48.979Z,52.01
2023-10-09T06:46:35.528Z,51.62
2023-10-09T06:49:23.585Z,51.14
2023-10-09T06:51:56.778Z,50.45
2023-10-09T06:54:28.213Z,50.00
2023-10-09T06:57:13.669Z,49.57
2023-10-09T07:00:05.684Z,48.97
2023-10-09T07:02:47.118Z,47.98
2023-10-09T07:05:18.740Z,46.32
2023-10-09T07:07:56.422Z,44.82
2023-10-09T07:10:33.773Z,43.13
2023-10-09T07:13:03.444Z,44.03
2023-10-09T07:15:50.087Z,44.26
2023-10-09T07:18:24.249Z,43.57
2023-10-09T07:21:02.685Z,42.37
2023-10-09T07:23:34.063Z,42.07
2023-10-09T07:26:24.693Z,42.75
2023-10-09T07:29:02.190Z,42.00
2023-10-09T07:31:40.764Z,41.79
2023-10-09T07:37:05.835Z,41.60
2023-10-09T07:39:37.249Z,41.77
2023-10-09T07:42:21.353Z,41.70
2023-10-09T07:44:55.418Z,40.88
2023-10-09T07:47:44.187Z,40.56
2023-10-09T07:50:13.217Z,39.47
2023-10-09T07:52:46.171Z,39.99
2023-10-09T07:55:27.401Z,39.65
2023-10-09T07:57:55.707Z,39.51
2023-10-09T08:00:59.455Z,38.08
2023-10-09T08:03:33.835Z,38.48
2023-10-09T08:06:29.151Z,36.82
2023-10-09T08:09:20.139Z,36.06
2023-10-09T08:12:09.238Z,35.93
2023-10-09T08:14:49.693Z,36.94
2023-10-09T08:17:17.338Z,36.56
2023-10-09T08:19:55.657Z,36.47
2023-10-09T08:22:38.763Z,36.66
2023-10-09T08:25:09.278Z,35.73
2023-10-09T08:27:55.741Z,33.58
2023-10-09T08:30:42.128Z,31.52
2023-10-09T08:36:06.666Z,29.84
2023-10-09T08:38:37.632Z,30.24
2023-10-09T08:41:22.267Z,30.47
2023-10-09T08:43:55.058Z,31.71
2023-10-09T08:46:27.935Z,31.56
2023-10-09T08:48:57.496Z,32.59
2023-10-09T08:51:27.043Z,33.36
2023-10-09T08:53:55.886Z,33.71
2023-10-09T08:56:25.402Z,34.40
2023-10-09T08:58:55.373Z,35.26
2023-10-09T09:01:26.104Z,37.55
2023-10-09T09:03:57.209Z,37.33
2023-10-09T09:06:25.516Z,39.22
2023-10-09T09:08:56.457Z,38.95
2023-10-09T09:11:26.292Z,39.12
2023-10-09T09:14:05.787Z,40.28
2023-10-09T09:16:36.577Z,40.22
2023-10-09T09:19:18.659Z,40.71
2023-10-09T09:21:55.413Z,39.32
2023-10-09T09:24:32.334Z,39.52
2023-10-09T09:27:21.747Z,40.23
2023-10-09T09:29:55.544Z,40.00
2023-10-09T09:32:36.754Z,39.32
2023-10-09T09:35:06.890Z,39.65
2023-10-09T09:37:51.639Z,39.56
2023-10-09T09:40:33.336Z,40.51
2023-10-09T09:43:07.592Z,38.91
2023-10-09T09:45:38.145Z,39.59
2023-10-09T09:48:08.108Z,39.01
2023-10-09T09:50:44.497Z,39.48
2023-10-09T09:53:17.646Z,39.01
2023-10-09T09:55:57.524Z,39.55
2023-10-09T09:58:33.988Z,39.51
2023-10-09T10:01:17.229Z,38.90
2023-10-09T10:03:51.973Z,38.93
2023-10-09T10:06:22.493Z,38.55
2023-10-09T10:08:52.587Z,38.64
2023-10-09T10:11:46.594Z,38.12
2023-10-09T10:14:30.301Z,38.72
2023-10-09T10:17:19.867Z,38.21
2023-10-09T10:20:27.290Z,38.14
2023-10-09T10:23:20.641Z,39.35
2023-10-09T10:25:51.586Z,38.31
2023-10-09T10:28:39.427Z,37.93
2023-10-09T10:31:10.732Z,37.60
2023-10-09T10:34:11.730Z,36.56
2023-10-09T10:36:45.423Z,35.93
2023-10-09T10:39:22.247Z,36.07
2023-10-09T10:41:57.014Z,35.39
2023-10-09T10:44:43.115Z,35.38
2023-10-09T10:47:26.202Z,35.54
2023-10-09T10:50:00.384Z,35.85
2023-10-09T10:52:43.392Z,35.56
2023-10-09T10:55:19.320Z,35.63
2023-10-09T10:58:01.831Z,35.52
2023-10-09T11:00:48.301Z,35.00
2023-10-09T11:03:25.131Z,35.08
2023-10-09T11:05:53.661Z,35.05
2023-10-09T11:08:32.117Z,33.96
2023-10-09T11:11:16.607Z,33.36
2023-10-09T11:13:58.265Z,33.48
2023-10-09T11:16:49.437Z,32.91
2023-10-09T11:19:36.134Z,32.29
2023-10-09T11:22:21.983Z,32.10
2023-10-09T11:25:12.401Z,32.25
2023-10-09T11:27:51.272Z,32.20
2023-10-09T11:30:33.668Z,32.40
2023-10-09T11:33:15.852Z,32.27
2023-10-09T11:35:59.221Z,31.65
2023-10-09T11:38:27.257Z,31.59
2023-10-09T11:41:14.936Z,31.11
2023-10-09T11:43:58.580Z,31.53
2023-10-09T11:46:46.471Z,31.52
2023-10-09T11:49:27.853Z,32.11
2023-10-09T11:52:24.858Z,31.71
2023-10-09T11:54:52.836Z,32.49
2023-10-09T11:57:29.919Z,32.73
2023-10-09T11:59:58.174Z,32.72
2023-10-09T12:02:25.498Z,32.55
2023-10-09T12:04:56.859Z,33.00
2023-10-09T12:07:28.843Z,33.21
2023-10-09T12:09:58.324Z,33.44
2023-10-09T12:12:27.733Z,32.32
2023-10-09T12:14:55.901Z,32.93
2023-10-09T12:17:27.535Z,32.67
2023-10-09T12:19:57.467Z,33.27
2023-10-09T12:22:28.498Z,33.88
2023-10-09T12:24:57.573Z,33.26
2023-10-09T12:27:25.788Z,33.92
2023-10-09T12:29:53.952Z,34.29
2023-10-09T12:32:22.061Z,33.55
2023-10-09T12:34:51.968Z,34.05
2023-10-09T12:37:21.854Z,33.67
2023-10-09T12:39:56.818Z,34.08
2023-10-09T12:42:24.844Z,34.17
2023-10-09T12:44:52.871Z,34.24
2023-10-09T12:47:21.015Z,34.08
2023-10-09T12:49:50.333Z,34.44
2023-10-09T12:52:18.371Z,34.49
2023-10-09T12:54:48.014Z,34.96
2023-10-09T12:57:17.518Z,34.88
2023-10-09T12:59:46.605Z,34.90
2023-10-09T13:02:29.342Z,35.24
2023-10-09T13:04:58.396Z,35.29
2023-10-09T13:07:26.685Z,35.38
2023-10-09T13:10:08.825Z,35.74
2023-10-09T13:12:42.017Z,35.96
2023-10-09T13:15:11.337Z,36.04
2023-10-09T13:17:40.395Z,35.89
2023-10-09T13:20:14.020Z,36.08
2023-10-09T13:22:43.198Z,36.38
2023-10-09T13:25:31.343Z,36.26
2023-10-09T13:28:04.748Z,36.19
2023-10-09T13:30:40.411Z,36.52
2023-10-09T13:33:09.920Z,36.31
2023-10-09T13:35:42.100Z,36.13
2023-10-09T13:38:11.205Z,36.02
2023-10-09T13:40:39.479Z,36.17
2023-10-09T13:43:17.531Z,36.29
2023-10-09T13:45:50.854Z,36.73
2023-10-09T13:48:22.063Z,36.51
2023-10-09T13:50:50.299Z,36.55
2023-10-09T13:53:18.925Z,36.21
2023-10-09T13:55:48.268Z,36.70
2023-10-09T13:58:24.545Z,37.90
2023-10-09T14:00:54.569Z,38.44
2023-10-09T14:03:25.707Z,38.86
2023-10-09T14:05:58.241Z,39.54
2023-10-09T14:08:27.421Z,40.69
2023-10-09T14:10:55.774Z,40.06
2023-10-09T14:13:29.467Z,39.03
2023-10-09T14:16:00.973Z,39.93
2023-10-09T14:18:31.019Z,39.59
2023-10-09T14:21:05.637Z,39.64
2023-10-09T14:23:35.618Z,39.55
2023-10-09T14:26:03.866Z,39.77
2023-10-09T14:28:33.255Z,40.38
2023-10-09T14:31:02.189Z,39.95
2023-10-09T14:33:37.410Z,39.86
2023-10-09T14:36:06.933Z,39.56
2023-10-09T14:38:39.825Z,39.23
2023-10-09T14:41:12.754Z,39.40
2023-10-09T14:43:42.939Z,39.53
2023-10-09T14:46:15.904Z,39.99
2023-10-09T14:48:47.061Z,40.40
2023-10-09T14:51:15.448Z,40.29
2023-10-09T14:53:43.406Z,40.94
2023-10-09T14:58:47.943Z,41.22
2023-10-09T15:01:19.737Z,41.96
2023-10-09T15:03:49.019Z,41.83
2023-10-09T15:06:18.942Z,42.37
2023-10-09T15:08:47.753Z,42.56
2023-10-09T15:11:16.675Z,42.17
2023-10-09T15:13:46.043Z,42.24
2023-10-09T15:16:15.151Z,42.27
2023-10-09T15:18:43.198Z,42.61
2023-10-09T15:21:11.985Z,42.17
2023-10-09T15:23:40.016Z,42.11
2023-10-09T15:26:08.900Z,42.28
2023-10-09T15:28:37.120Z,42.44
2023-10-09T15:31:12.228Z,43.03
2023-10-09T15:33:40.980Z,42.92
2023-10-09T15:36:14.050Z,42.71
2023-10-09T15:38:42.524Z,42.48
2023-10-09T15:41:10.720Z,42.40
2023-10-09T15:43:39.850Z,42.44
2023-10-09T15:46:14.071Z,42.60
2023-10-09T15:48:42.110Z,42.58
2023-10-09T15:51:15.030Z,42.39
2023-10-09T15:53:44.334Z,42.32
2023-10-09T15:56:14.087Z,42.40
2023-10-09T15:58:44.111Z,42.23
2023-10-09T16:01:15.829Z,42.34
2023-10-09T16:03:45.061Z,42.28
2023-10-09T16:06:13.376Z,42.44
2023-10-09T16:08:42.969Z,42.36
2023-10-09T16:11:12.460Z,42.69
2023-10-09T16:13:42.263Z,42.53
2023-10-09T16:16:10.233Z,42.97
2023-10-09T16:18:40.377Z,43.01
2023-10-09T16:21:13.299Z,43.21
2023-10-09T16:23:43.312Z,43.43
2023-10-09T16:26:11.598Z,43.35
2023-10-09T16:28:41.307Z,43.38
2023-10-09T16:31:20.145Z,43.27
2023-10-09T16:34:08.674Z,43.23
2023-10-09T16:36:37.337Z,43.41
2023-10-09T16:39:06.087Z,43.39
2023-10-09T16:41:41.138Z,43.57
2023-10-09T16:44:11.397Z,43.53
2023-10-09T16:46:41.024Z,43.62
2023-10-09T16:49:12.619Z,43.62
2023-10-09T16:51:41.120Z,43.50
2023-10-09T16:54:15.948Z,43.71
2023-10-09T16:56:44.711Z,43.64
2023-10-09T16:59:15.426Z,43.74
2023-10-09T17:01:45.601Z,43.71
2023-10-09T17:04:18.147Z,43.87
2023-10-09T17:06:48.231Z,43.90
2023-10-09T17:09:16.522Z,43.69
2023-10-09T17:11:44.751Z,44.12
2023-10-09T17:14:17.109Z,43.95
2023-10-09T17:16:46.539Z,44.08
2023-10-09T17:19:16.190Z,44.32
2023-10-09T17:21:44.640Z,44.54
2023-10-09T17:24:13.651Z,44.70
2023-10-09T17:26:42.875Z,44.67
2023-10-09T17:29:12.184Z,44.98
2023-10-09T17:31:41.038Z,44.96
2023-10-09T17:34:09.333Z,45.22
2023-10-09T17:36:38.719Z,45.24
2023-10-09T17:39:08.063Z,45.24
2023-10-09T17:41:37.031Z,45.20
2023-10-09T17:44:06.155Z,45.38
2023-10-09T17:46:34.280Z,45.48
2023-10-09T17:49:02.654Z,45.62
2023-10-09T17:51:30.762Z,45.53
2023-10-09T17:54:00.247Z,45.95
2023-10-09T17:56:28.361Z,46.14
2023-10-09T17:58:56.400Z,46.23
2023-10-09T18:01:28.939Z,46.03
2023-10-09T18:06:28.453Z,45.74
2023-10-09T18:08:56.683Z,45.79
2023-10-09T18:11:26.031Z,45.69
2023-10-09T18:13:54.951Z,45.77
2023-10-09T18:16:23.738Z,45.56
2023-10-09T18:18:54.089Z,45.55
2023-10-09T18:21:22.153Z,45.51
2023-10-09T18:23:50.268Z,45.57
2023-10-09T18:26:19.790Z,45.86
2023-10-09T18:28:49.961Z,45.57
2023-10-09T18:31:18.802Z,45.80
2023-10-09T18:33:47.516Z,45.83
2023-10-09T18:36:18.865Z,45.60
2023-10-09T18:38:52.030Z,45.66
2023-10-09T18:41:22.985Z,45.60
2023-10-09T18:43:55.578Z,45.22
2023-10-09T18:46:23.978Z,45.09
2023-10-09T18:48:52.887Z,45.13
2023-10-09T18:51:20.961Z,45.06
2023-10-09T18:53:49.265Z,45.12
2023-10-09T18:56:21.092Z,45.10
2023-10-09T18:58:51.180Z,45.17
2023-10-09T19:01:20.731Z,45.30
2023-10-09T19:03:50.547Z,45.18
2023-10-09T19:06:19.661Z,45.43
2023-10-09T19:08:49.397Z,45.40
2023-10-09T19:11:24.486Z,45.37
2023-10-09T19:13:53.199Z,45.35
2023-10-09T19:16:23.256Z,45.43
2023-10-09T19:18:51.403Z,45.33
2023-10-09T19:21:19.942Z,45.50
2023-10-09T19:23:48.314Z,45.52
2023-10-09T19:26:18.490Z,45.28
2023-10-09T19:28:49.023Z,45.37
2023-10-09T19:31:18.120Z,45.65
2023-10-09T19:33:47.908Z,45.66
2023-10-09T19:36:16.291Z,45.69
2023-10-09T19:38:51.196Z,45.80
2023-10-09T19:41:20.959Z,45.71
2023-10-09T19:43:49.405Z,45.93
2023-10-09T19:46:18.304Z,45.76
2023-10-09T19:48:50.644Z,45.93
2023-10-09T19:51:21.393Z,45.94
2023-10-09T19:53:49.267Z,45.92
2023-10-09T19:56:20.829Z,45.94
2023-10-09T19:58:48.818Z,46.13
2023-10-09T20:01:17.121Z,46.15
2023-10-09T20:03:45.247Z,46.25
2023-10-09T20:06:16.580Z,46.20
2023-10-09T20:08:44.647Z,46.08
2023-10-09T20:11:14.020Z,46.20
2023-10-09T20:13:44.094Z,46.23
2023-10-09T20:16:12.792Z,46.25
2023-10-09T20:18:43.933Z,46.00
2023-10-09T20:21:15.334Z,46.12
2023-10-09T20:23:44.231Z,46.18
2023-10-09T20:26:16.300Z,46.03
2023-10-09T20:28:46.589Z,46.31
2023-10-09T20:31:15.765Z,46.47
2023-10-09T20:33:44.729Z,46.28
2023-10-09T20:36:19.908Z,46.20
2023-10-09T20:38:49.799Z,46.64
2023-10-09T20:41:19.800Z,46.50
2023-10-09T20:43:48.474Z,47.94
2023-10-09T20:46:17.531Z,48.33
2023-10-09T20:48:46.947Z,46.78
2023-10-09T20:51:17.960Z,46.90
2023-10-09T20:53:47.244Z,46.26
2023-10-09T20:56:15.488Z,46.33
2023-10-09T20:58:44.366Z,46.47
2023-10-09T21:01:17.385Z,46.57
2023-10-09T21:03:47.776Z,46.66
2023-10-09T21:06:18.396Z,46.91
2023-10-09T21:08:46.643Z,46.60
2023-10-09T21:11:14.716Z,46.88
2023-10-09T21:13:46.167Z,46.81
2023-10-09T21:16:15.424Z,46.55
2023-10-09T21:18:45.127Z,46.63
2023-10-09T21:21:14.696Z,46.69
2023-10-09T21:23:44.887Z,46.57
2023-10-09T21:26:21.517Z,46.71
2023-10-09T21:28:50.423Z,46.64
2023-10-09T21:31:20.982Z,46.69
2023-10-09T21:33:50.651Z,46.72
2023-10-09T21:36:19.174Z,46.92
2023-10-09T21:38:48.560Z,46.86
2023-10-09T21:41:19.309Z,46.95
2023-10-09T21:43:48.209Z,47.13
2023-10-09T21:46:16.856Z,47.04
2023-10-09T21:48:45.099Z,47.01
2023-10-09T21:51:17.375Z,47.40
2023-10-09T21:53:45.825Z,47.55
2023-10-09T21:56:16.764Z,47.45
2023-10-09T21:58:44.738Z,47.53
2023-10-09T22:01:13.895Z,47.67
2023-10-09T22:03:42.712Z,47.42
2023-10-09T22:06:11.922Z,47.72
2023-10-09T22:08:40.062Z,48.04
2023-10-09T22:11:08.818Z,47.92
2023-10-09T22:13:38.377Z,47.75
2023-10-09T22:16:06.723Z,48.06
2023-10-09T22:18:41.183Z,48.14
2023-10-09T22:21:12.309Z,48.20
2023-10-09T22:23:46.846Z,48.32
2023-10-09T22:26:16.078Z,48.68
2023-10-09T22:28:47.973Z,48.17
2023-10-09T22:31:17.781Z,48.50
2023-10-09T22:33:51.209Z,48.64
2023-10-09T22:36:28.448Z,48.36
2023-10-09T22:39:06.601Z,48.23
2023-10-09T22:41:35.786Z,48.71
2023-10-09T22:44:11.753Z,48.47
2023-10-09T22:46:41.753Z,48.54
2023-10-09T22:49:15.789Z,48.86
2023-10-09T22:51:51.263Z,49.02
2023-10-09T22:54:24.427Z,49.12
2023-10-09T22:56:54.020Z,48.98
2023-10-09T22:59:28.208Z,49.21
2023-10-09T23:02:00.268Z,48.89
2023-10-09T23:04:38.196Z,49.18
2023-10-09T23:07:15.638Z,49.45
2023-10-09T23:09:51.760Z,49.09
2023-10-09T23:12:26.296Z,49.42
2023-10-09T23:14:57.055Z,49.48
2023-10-09T23:17:45.096Z,49.47
2023-10-09T23:20:20.764Z,49.96
2023-10-09T23:22:51.049Z,50.01
2023-10-09T23:25:31.334Z,49.60
2023-10-09T23:28:13.404Z,49.85
2023-10-09T23:30:44.394Z,49.99
2023-10-09T23:33:21.670Z,49.43
2023-10-09T23:35:56.571Z,49.91
2023-10-09T23:38:33.729Z,49.90
2023-10-09T23:41:05.115Z,49.86
2023-10-09T23:43:34.020Z,50.08
2023-10-09T23:46:09.105Z,49.79
2023-10-09T23:48:39.579Z,49.85
2023-10-09T23:51:13.377Z,50.00
2023-10-09T23:53:47.633Z,50.13
2023-10-09T23:56:35.920Z,50.00
2023-10-09T23:59:12.177Z,50.10
